sensor_id;sensor_type;location;lat;lon;timestamp;pressure;altitude;pressure_sealevel;temperature;humidity
34586;BME280;20816;50.950;11.108;2023-01-29T00:02:06;99686.22;;;-3.29;100.00
34586;BME280;20816;50.950;11.108;2023-01-29T00:04:33;99683.31;;;-3.35;100.00
34586;BME280;20816;50.950;11.108;2023-01-29T00:07:00;99673.69;;;-3.39;100.00
34586;BME280;20816;50.950;11.108;2023-01-29T00:09:27;99661.03;;;-3.52;100.00
34586;BME280;20816;50.950;11.108;2023-01-29T00:11:54;99659.59;;;-3.63;100.00
34586;BME280;20816;50.950;11.108;2023-01-29T00:14:21;99659.25;;;-3.53;100.00
34586;BME280;20816;50.950;11.108;2023-01-29T00:16:47;99646.75;;;-3.63;100.00
34586;BME280;20816;50.950;11.108;2023-01-29T00:19:14;99656.91;;;-3.67;100.00
34586;BME280;20816;50.950;11.108;2023-01-29T00:21:40;99650.56;;;-3.73;100.00
34586;BME280;20816;50.950;11.108;2023-01-29T00:24:07;99651.38;;;-3.74;100.00
34586;BME280;20816;50.950;11.108;2023-01-29T00:26:34;99654.16;;;-3.70;100.00
34586;BME280;20816;50.950;11.108;2023-01-29T00:29:00;99654.97;;;-3.71;100.00
34586;BME280;20816;50.950;11.108;2023-01-29T00:31:28;99647.91;;;-3.75;100.00
34586;BME280;20816;50.950;11.108;2023-01-29T00:33:55;99646.94;;;-3.77;100.00
34586;BME280;20816;50.950;11.108;2023-01-29T00:36:24;99641.66;;;-3.80;100.00
34586;BME280;20816;50.950;11.108;2023-01-29T00:38:58;99642.63;;;-3.94;100.00
34586;BME280;20816;50.950;11.108;2023-01-29T00:41:30;99636.53;;;-3.96;100.00
34586;BME280;20816;50.950;11.108;2023-01-29T00:44:17;99639.00;;;-3.98;100.00
34586;BME280;20816;50.950;11.108;2023-01-29T00:47:03;99637.81;;;-4.04;100.00
34586;BME280;20816;50.950;11.108;2023-01-29T00:49:29;99639.25;;;-4.09;100.00
34586;BME280;20816;50.950;11.108;2023-01-29T00:51:56;99637.56;;;-4.09;100.00
34586;BME280;20816;50.950;11.108;2023-01-29T00:54:42;99645.25;;;-4.09;100.00
34586;BME280;20816;50.950;11.108;2023-01-29T00:57:08;99646.31;;;-4.21;100.00
34586;BME280;20816;50.950;11.108;2023-01-29T00:59:35;99631.53;;;-4.26;100.00
34586;BME280;20816;50.950;11.108;2023-01-29T01:02:02;99632.25;;;-4.28;100.00
34586;BME280;20816;50.950;11.108;2023-01-29T01:04:47;99633.28;;;-4.25;100.00
34586;BME280;20816;50.950;11.108;2023-01-29T01:07:13;99628.34;;;-4.21;100.00
34586;BME280;20816;50.950;11.108;2023-01-29T01:09:40;99621.44;;;-4.22;100.00
34586;BME280;20816;50.950;11.108;2023-01-29T01:12:27;99619.34;;;-4.30;100.00
34586;BME280;20816;50.950;11.108;2023-01-29T01:14:53;99614.03;;;-4.33;100.00
34586;BME280;20816;50.950;11.108;2023-01-29T01:17:20;99617.19;;;-4.38;100.00
34586;BME280;20816;50.950;11.108;2023-01-29T01:19:47;99614.03;;;-4.33;100.00
34586;BME280;20816;50.950;11.108;2023-01-29T01:22:14;99607.16;;;-4.34;100.00
34586;BME280;20816;50.950;11.108;2023-01-29T01:24:40;99613.88;;;-4.36;100.00
34586;BME280;20816;50.950;11.108;2023-01-29T01:27:07;99608.03;;;-4.33;100.00
34586;BME280;20816;50.950;11.108;2023-01-29T01:29:34;99615.66;;;-4.35;100.00
34586;BME280;20816;50.950;11.108;2023-01-29T01:32:01;99613.09;;;-4.35;100.00
34586;BME280;20816;50.950;11.108;2023-01-29T01:34:28;99609.63;;;-4.35;100.00
34586;BME280;20816;50.950;11.108;2023-01-29T01:36:54;99607.06;;;-4.35;100.00
34586;BME280;20816;50.950;11.108;2023-01-29T01:39:23;99605.56;;;-4.32;100.00
34586;BME280;20816;50.950;11.108;2023-01-29T01:41:51;99596.88;;;-4.34;100.00
34586;BME280;20816;50.950;11.108;2023-01-29T01:47:19;99590.66;;;-4.39;100.00
34586;BME280;20816;50.950;11.108;2023-01-29T01:49:47;99590.53;;;-4.40;100.00
34586;BME280;20816;50.950;11.108;2023-01-29T01:52:15;99585.66;;;-4.36;100.00
34586;BME280;20816;50.950;11.108;2023-01-29T01:54:43;99584.84;;;-4.35;100.00
34586;BME280;20816;50.950;11.108;2023-01-29T01:57:14;99584.38;;;-4.28;100.00
34586;BME280;20816;50.950;11.108;2023-01-29T02:00:09;99595.94;;;-4.19;100.00
34586;BME280;20816;50.950;11.108;2023-01-29T02:02:40;99590.06;;;-4.17;100.00
34586;BME280;20816;50.950;11.108;2023-01-29T02:05:26;99595.44;;;-4.12;100.00
34586;BME280;20816;50.950;11.108;2023-01-29T02:08:13;99597.53;;;-4.05;100.00
34586;BME280;20816;50.950;11.108;2023-01-29T02:10:59;99596.94;;;-4.00;100.00
34586;BME280;20816;50.950;11.108;2023-01-29T02:13:26;99609.31;;;-3.92;100.00
34586;BME280;20816;50.950;11.108;2023-01-29T02:15:53;99611.66;;;-3.97;100.00
34586;BME280;20816;50.950;11.108;2023-01-29T02:18:20;99614.69;;;-3.88;100.00
34586;BME280;20816;50.950;11.108;2023-01-29T02:24:04;99624.63;;;-3.94;100.00
34586;BME280;20816;50.950;11.108;2023-01-29T02:27:19;99628.91;;;-3.95;100.00
34586;BME280;20816;50.950;11.108;2023-01-29T02:32:25;99624.31;;;-4.00;100.00
34586;BME280;20816;50.950;11.108;2023-01-29T02:35:19;99612.63;;;-4.11;100.00
34586;BME280;20816;50.950;11.108;2023-01-29T02:40:46;99606.34;;;-4.16;100.00
34586;BME280;20816;50.950;11.108;2023-01-29T02:46:07;99613.97;;;-4.18;100.00
34586;BME280;20816;50.950;11.108;2023-01-29T02:48:40;99628.81;;;-4.12;100.00
34586;BME280;20816;50.950;11.108;2023-01-29T02:51:43;99622.88;;;-3.95;100.00
34586;BME280;20816;50.950;11.108;2023-01-29T02:54:22;99616.31;;;-4.06;100.00
34586;BME280;20816;50.950;11.108;2023-01-29T02:56:54;99618.41;;;-4.15;100.00
34586;BME280;20816;50.950;11.108;2023-01-29T02:59:51;99614.16;;;-4.15;100.00
34586;BME280;20816;50.950;11.108;2023-01-29T03:02:25;99615.19;;;-4.11;100.00
34586;BME280;20816;50.950;11.108;2023-01-29T03:04:59;99611.06;;;-4.08;100.00
34586;BME280;20816;50.950;11.108;2023-01-29T03:07:33;99611.47;;;-4.16;100.00
34586;BME280;20816;50.950;11.108;2023-01-29T03:10:29;99616.78;;;-4.13;100.00
34586;BME280;20816;50.950;11.108;2023-01-29T03:13:02;99609.16;;;-4.12;100.00
34586;BME280;20816;50.950;11.108;2023-01-29T03:15:37;99610.19;;;-4.08;100.00
34586;BME280;20816;50.950;11.108;2023-01-29T03:18:11;99600.25;;;-4.02;100.00
34586;BME280;20816;50.950;11.108;2023-01-29T03:20:43;99611.47;;;-4.16;100.00
34586;BME280;20816;50.950;11.108;2023-01-29T03:23:19;99607.97;;;-4.18;100.00
34586;BME280;20816;50.950;11.108;2023-01-29T03:25:52;99595.78;;;-4.06;100.00
34586;BME280;20816;50.950;11.108;2023-01-29T03:28:40;99591.75;;;-4.01;100.00
34586;BME280;20816;50.950;11.108;2023-01-29T03:31:26;99593.69;;;-3.97;100.00
34586;BME280;20816;50.950;11.108;2023-01-29T03:34:15;99589.34;;;-3.98;100.00
34586;BME280;20816;50.950;11.108;2023-01-29T03:36:55;99590.63;;;-3.90;100.00
34586;BME280;20816;50.950;11.108;2023-01-29T03:39:25;99595.91;;;-3.87;100.00
34586;BME280;20816;50.950;11.108;2023-01-29T03:44:59;99592.31;;;-3.90;100.00
34586;BME280;20816;50.950;11.108;2023-01-29T03:53:04;99598.81;;;-3.97;100.00
34586;BME280;20816;50.950;11.108;2023-01-29T03:58:38;99593.28;;;-3.88;100.00
34586;BME280;20816;50.950;11.108;2023-01-29T04:01:13;99594.16;;;-3.88;100.00
34586;BME280;20816;50.950;11.108;2023-01-29T04:03:54;99590.44;;;-3.93;100.00
34586;BME280;20816;50.950;11.108;2023-01-29T04:06:25;99598.63;;;-3.84;100.00
34586;BME280;20816;50.950;11.108;2023-01-29T04:09:27;99591.31;;;-3.92;100.00
34586;BME280;20816;50.950;11.108;2023-01-29T04:12:03;99584.69;;;-4.05;100.00
34586;BME280;20816;50.950;11.108;2023-01-29T04:14:32;99594.09;;;-4.06;100.00
34586;BME280;20816;50.950;11.108;2023-01-29T04:17:04;99588.69;;;-3.94;100.00
34586;BME280;20816;50.950;11.108;2023-01-29T04:19:33;99585.31;;;-3.93;100.00
34586;BME280;20816;50.950;11.108;2023-01-29T04:22:14;99589.84;;;-4.05;100.00
34586;BME280;20816;50.950;11.108;2023-01-29T04:24:42;99588.38;;;-4.00;100.00
34586;BME280;20816;50.950;11.108;2023-01-29T04:27:25;99580.19;;;-3.93;100.00
34586;BME280;20816;50.950;11.108;2023-01-29T04:30:05;99579.75;;;-3.84;100.00
34586;BME280;20816;50.950;11.108;2023-01-29T04:32:41;99577.44;;;-3.80;100.00
34586;BME280;20816;50.950;11.108;2023-01-29T04:40:49;99556.44;;;-3.89;100.00
34586;BME280;20816;50.950;11.108;2023-01-29T04:43:25;99552.00;;;-3.91;100.00
34586;BME280;20816;50.950;11.108;2023-01-29T04:49:01;99551.13;;;-3.92;100.00
34586;BME280;20816;50.950;11.108;2023-01-29T04:52:00;99539.09;;;-3.93;100.00
34586;BME280;20816;50.950;11.108;2023-01-29T04:54:40;99533.97;;;-3.93;100.00
34586;BME280;20816;50.950;11.108;2023-01-29T04:57:23;99544.31;;;-3.91;100.00
34586;BME280;20816;50.950;11.108;2023-01-29T04:59:57;99534.13;;;-3.90;100.00
34586;BME280;20816;50.950;11.108;2023-01-29T05:02:25;99530.59;;;-3.92;100.00
34586;BME280;20816;50.950;11.108;2023-01-29T05:04:54;99533.81;;;-3.96;100.00
34586;BME280;20816;50.950;11.108;2023-01-29T05:07:23;99536.53;;;-3.93;100.00
34586;BME280;20816;50.950;11.108;2023-01-29T05:09:52;99538.97;;;-3.96;100.00
34586;BME280;20816;50.950;11.108;2023-01-29T05:12:19;99551.44;;;-3.86;100.00
34586;BME280;20816;50.950;11.108;2023-01-29T05:14:47;99540.72;;;-3.95;100.00
34586;BME280;20816;50.950;11.108;2023-01-29T05:17:17;99537.91;;;-4.00;100.00
34586;BME280;20816;50.950;11.108;2023-01-29T05:19:45;99524.34;;;-3.97;100.00
34586;BME280;20816;50.950;11.108;2023-01-29T05:22:15;99532.50;;;-3.88;100.00
34586;BME280;20816;50.950;11.108;2023-01-29T05:24:43;99527.38;;;-3.88;100.00
34586;BME280;20816;50.950;11.108;2023-01-29T05:27:27;99536.09;;;-3.84;100.00
34586;BME280;20816;50.950;11.108;2023-01-29T05:30:14;99533.81;;;-3.96;100.00
34586;BME280;20816;50.950;11.108;2023-01-29T05:32:41;99535.81;;;-3.90;100.00
34586;BME280;20816;50.950;11.108;2023-01-29T05:35:08;99519.84;;;-4.01;100.00
34586;BME280;20816;50.950;11.108;2023-01-29T05:37:34;99517.16;;;-4.04;100.00
34586;BME280;20816;50.950;11.108;2023-01-29T05:40:01;99513.91;;;-4.00;100.00
34586;BME280;20816;50.950;11.108;2023-01-29T05:42:28;99520.75;;;-4.01;100.00
34586;BME280;20816;50.950;11.108;2023-01-29T05:44:54;99518.91;;;-4.03;100.00
34586;BME280;20816;50.950;11.108;2023-01-29T05:47:21;99520.91;;;-3.98;100.00
34586;BME280;20816;50.950;11.108;2023-01-29T05:49:47;99517.34;;;-4.00;100.00
34586;BME280;20816;50.950;11.108;2023-01-29T05:52:14;99514.91;;;-3.98;100.00
34586;BME280;20816;50.950;11.108;2023-01-29T05:54:41;99512.97;;;-4.02;100.00
34586;BME280;20816;50.950;11.108;2023-01-29T05:57:07;99519.16;;;-3.99;100.00
34586;BME280;20816;50.950;11.108;2023-01-29T05:59:34;99517.28;;;-4.01;100.00
34586;BME280;20816;50.950;11.108;2023-01-29T06:02:01;99506.88;;;-4.04;100.00
34586;BME280;20816;50.950;11.108;2023-01-29T06:04:27;99499.59;;;-4.13;100.00
34586;BME280;20816;50.950;11.108;2023-01-29T06:06:54;99495.03;;;-4.18;100.00
34586;BME280;20816;50.950;11.108;2023-01-29T06:09:21;99496.78;;;-4.17;100.00
34586;BME280;20816;50.950;11.108;2023-01-29T06:11:47;99496.22;;;-4.12;100.00
34586;BME280;20816;50.950;11.108;2023-01-29T06:14:14;99495.34;;;-4.12;100.00
34586;BME280;20816;50.950;11.108;2023-01-29T06:16:40;99493.72;;;-4.10;100.00
34586;BME280;20816;50.950;11.108;2023-01-29T06:19:07;99488.91;;;-4.04;100.00
34586;BME280;20816;50.950;11.108;2023-01-29T06:21:34;99490.34;;;-4.09;100.00
34586;BME280;20816;50.950;11.108;2023-01-29T06:24:00;99502.38;;;-4.08;100.00
34586;BME280;20816;50.950;11.108;2023-01-29T06:26:27;99504.72;;;-4.13;100.00
34586;BME280;20816;50.950;11.108;2023-01-29T06:28:54;99502.25;;;-4.11;100.00
34586;BME280;20816;50.950;11.108;2023-01-29T06:31:20;99499.81;;;-4.08;100.00
34586;BME280;20816;50.950;11.108;2023-01-29T06:34:04;99509.59;;;-4.01;100.00
34586;BME280;20816;50.950;11.108;2023-01-29T06:36:31;99507.09;;;-4.00;100.00
34586;BME280;20816;50.950;11.108;2023-01-29T06:38:57;99520.84;;;-3.99;100.00
34586;BME280;20816;50.950;11.108;2023-01-29T06:41:25;99528.84;;;-4.09;100.00
34586;BME280;20816;50.950;11.108;2023-01-29T06:43:51;99537.03;;;-4.16;100.00
34586;BME280;20816;50.950;11.108;2023-01-29T06:46:18;99548.28;;;-4.14;100.00
34586;BME280;20816;50.950;11.108;2023-01-29T06:48:45;99544.44;;;-4.22;100.00
34586;BME280;20816;50.950;11.108;2023-01-29T06:51:11;99543.16;;;-4.14;100.00
34586;BME280;20816;50.950;11.108;2023-01-29T06:53:38;99542.28;;;-4.15;100.00
34586;BME280;20816;50.950;11.108;2023-01-29T06:56:05;99546.91;;;-4.24;100.00
34586;BME280;20816;50.950;11.108;2023-01-29T06:58:34;99556.63;;;-4.18;100.00
34586;BME280;20816;50.950;11.108;2023-01-29T07:01:09;99562.09;;;-4.12;100.00
34586;BME280;20816;50.950;11.108;2023-01-29T07:03:50;99562.88;;;-4.13;100.00
34586;BME280;20816;50.950;11.108;2023-01-29T07:06:17;99580.53;;;-4.19;100.00
34586;BME280;20816;50.950;11.108;2023-01-29T07:08:44;99575.16;;;-4.24;100.00
34586;BME280;20816;50.950;11.108;2023-01-29T07:11:11;99574.44;;;-4.21;100.00
34586;BME280;20816;50.950;11.108;2023-01-29T07:13:38;99593.50;;;-4.16;100.00
34586;BME280;20816;50.950;11.108;2023-01-29T07:16:05;99589.84;;;-4.21;100.00
34586;BME280;20816;50.950;11.108;2023-01-29T07:18:32;99590.94;;;-4.16;100.00
34586;BME280;20816;50.950;11.108;2023-01-29T07:21:03;99595.66;;;-4.08;100.00
34586;BME280;20816;50.950;11.108;2023-01-29T07:23:29;99599.38;;;-4.03;100.00
34586;BME280;20816;50.950;11.108;2023-01-29T07:26:00;99597.88;;;-4.15;100.00
34586;BME280;20816;50.950;11.108;2023-01-29T07:28:27;99602.59;;;-4.07;100.00
34586;BME280;20816;50.950;11.108;2023-01-29T07:30:56;99612.75;;;-4.08;100.00
34586;BME280;20816;50.950;11.108;2023-01-29T07:33:23;99615.19;;;-3.95;100.00
34586;BME280;20816;50.950;11.108;2023-01-29T07:35:50;99616.94;;;-3.94;100.00
34586;BME280;20816;50.950;11.108;2023-01-29T07:38:17;99615.31;;;-3.92;100.00
34586;BME280;20816;50.950;11.108;2023-01-29T07:40:44;99612.66;;;-3.77;100.00
34586;BME280;20816;50.950;11.108;2023-01-29T07:43:11;99630.53;;;-3.62;100.00
34586;BME280;20816;50.950;11.108;2023-01-29T07:45:38;99618.59;;;-3.44;100.00
34586;BME280;20816;50.950;11.108;2023-01-29T07:48:08;99624.06;;;-3.38;100.00
34586;BME280;20816;50.950;11.108;2023-01-29T07:50:35;99616.78;;;-3.47;100.00
34586;BME280;20816;50.950;11.108;2023-01-29T07:53:02;99610.19;;;-3.42;100.00
34586;BME280;20816;50.950;11.108;2023-01-29T07:55:29;99602.97;;;-3.49;100.00
34586;BME280;20816;50.950;11.108;2023-01-29T07:57:59;99599.81;;;-3.43;100.00
34586;BME280;20816;50.950;11.108;2023-01-29T08:00:27;99606.22;;;-3.35;100.00
34586;BME280;20816;50.950;11.108;2023-01-29T08:03:00;99599.47;;;-3.33;100.00
34586;BME280;20816;50.950;11.108;2023-01-29T08:05:27;99590.72;;;-3.19;100.00
34586;BME280;20816;50.950;11.108;2023-01-29T08:07:54;99581.69;;;-3.11;100.00
34586;BME280;20816;50.950;11.108;2023-01-29T08:10:33;99557.09;;;-3.05;100.00
34586;BME280;20816;50.950;11.108;2023-01-29T08:13:01;99546.69;;;-3.08;100.00
34586;BME280;20816;50.950;11.108;2023-01-29T08:15:28;99560.91;;;-2.97;100.00
34586;BME280;20816;50.950;11.108;2023-01-29T08:17:55;99557.69;;;-2.93;100.00
34586;BME280;20816;50.950;11.108;2023-01-29T08:20:42;99552.44;;;-2.77;100.00
34586;BME280;20816;50.950;11.108;2023-01-29T08:23:13;99541.59;;;-2.70;100.00
34586;BME280;20816;50.950;11.108;2023-01-29T08:25:40;99549.28;;;-2.52;100.00
34586;BME280;20816;50.950;11.108;2023-01-29T08:28:07;99544.50;;;-2.44;100.00
34586;BME280;20816;50.950;11.108;2023-01-29T08:30:36;99565.91;;;-2.26;100.00
34586;BME280;20816;50.950;11.108;2023-01-29T08:33:03;99561.22;;;-2.15;100.00
34586;BME280;20816;50.950;11.108;2023-01-29T08:35:30;99566.19;;;-2.20;100.00
34586;BME280;20816;50.950;11.108;2023-01-29T08:37:58;99560.66;;;-2.08;100.00
34586;BME280;20816;50.950;11.108;2023-01-29T08:40:27;99558.97;;;-2.08;99.21
34586;BME280;20816;50.950;11.108;2023-01-29T08:43:00;99562.31;;;-2.10;99.54
34586;BME280;20816;50.950;11.108;2023-01-29T08:45:30;99565.22;;;-2.03;98.74
34586;BME280;20816;50.950;11.108;2023-01-29T08:47:59;99573.88;;;-2.01;97.95
34586;BME280;20816;50.950;11.108;2023-01-29T08:50:26;99582.91;;;-2.10;97.98
34586;BME280;20816;50.950;11.108;2023-01-29T08:52:57;99607.78;;;-2.11;98.71
34586;BME280;20816;50.950;11.108;2023-01-29T08:55:25;99629.84;;;-2.16;98.32
34586;BME280;20816;50.950;11.108;2023-01-29T08:57:52;99635.53;;;-2.23;98.79
34586;BME280;20816;50.950;11.108;2023-01-29T09:00:19;99636.06;;;-2.30;98.83
34586;BME280;20816;50.950;11.108;2023-01-29T09:02:46;99632.50;;;-2.14;98.39
34586;BME280;20816;50.950;11.108;2023-01-29T09:05:12;99615.75;;;-2.05;97.93
34586;BME280;20816;50.950;11.108;2023-01-29T09:07:40;99611.91;;;-2.34;97.79
34586;BME280;20816;50.950;11.108;2023-01-29T09:10:07;99598.84;;;-2.19;97.77
34586;BME280;20816;50.950;11.108;2023-01-29T09:12:34;99598.69;;;-2.22;97.28
34586;BME280;20816;50.950;11.108;2023-01-29T09:15:01;99595.44;;;-2.18;97.66
34586;BME280;20816;50.950;11.108;2023-01-29T09:17:27;99580.19;;;-2.13;97.41
34586;BME280;20816;50.950;11.108;2023-01-29T09:19:55;99585.88;;;-2.20;97.66
34586;BME280;20816;50.950;11.108;2023-01-29T09:22:22;99579.34;;;-2.12;97.25
34586;BME280;20816;50.950;11.108;2023-01-29T09:24:48;99576.53;;;-2.18;97.20
34586;BME280;20816;50.950;11.108;2023-01-29T09:27:15;99566.69;;;-2.08;97.19
34586;BME280;20816;50.950;11.108;2023-01-29T09:29:42;99566.97;;;-2.02;97.06
34586;BME280;20816;50.950;11.108;2023-01-29T09:32:09;99582.69;;;-1.95;96.68
34586;BME280;20816;50.950;11.108;2023-01-29T09:34:35;99577.66;;;-1.92;95.85
34586;BME280;20816;50.950;11.108;2023-01-29T09:37:02;99583.09;;;-1.86;95.63
34586;BME280;20816;50.950;11.108;2023-01-29T09:39:29;99564.84;;;-1.91;95.29
34586;BME280;20816;50.950;11.108;2023-01-29T09:42:01;99550.53;;;-1.84;95.86
34586;BME280;20816;50.950;11.108;2023-01-29T09:44:59;99547.97;;;-1.84;96.10
34586;BME280;20816;50.950;11.108;2023-01-29T09:47:27;99542.53;;;-1.71;95.78
34586;BME280;20816;50.950;11.108;2023-01-29T09:50:13;99534.19;;;-1.64;95.58
34586;BME280;20816;50.950;11.108;2023-01-29T09:52:50;99538.38;;;-1.47;95.68
34586;BME280;20816;50.950;11.108;2023-01-29T09:55:36;99530.00;;;-1.41;95.31
34586;BME280;20816;50.950;11.108;2023-01-29T09:58:17;99519.22;;;-1.31;94.91
34586;BME280;20816;50.950;11.108;2023-01-29T10:03:50;99499.50;;;-0.86;94.89
34586;BME280;20816;50.950;11.108;2023-01-29T10:18:04;99491.19;;;-0.78;93.94
34586;BME280;20816;50.950;11.108;2023-01-29T10:22:01;99481.00;;;-0.98;94.69
34586;BME280;20816;50.950;11.108;2023-01-29T10:26:30;99475.47;;;-1.07;96.17
34586;BME280;20816;50.950;11.108;2023-01-29T10:29:00;99467.28;;;-0.97;95.92
34586;BME280;20816;50.950;11.108;2023-01-29T10:31:30;99464.34;;;-1.06;96.13
34586;BME280;20816;50.950;11.108;2023-01-29T10:36:47;99461.34;;;-0.94;95.95
34586;BME280;20816;50.950;11.108;2023-01-29T10:39:25;99462.69;;;-1.04;97.21
34586;BME280;20816;50.950;11.108;2023-01-29T10:47:43;99454.81;;;-0.85;97.26
34586;BME280;20816;50.950;11.108;2023-01-29T10:58:30;99429.38;;;-0.50;96.70
34586;BME280;20816;50.950;11.108;2023-01-29T11:00:59;99426.19;;;-0.43;95.92
34586;BME280;20816;50.950;11.108;2023-01-29T11:03:29;99402.47;;;-0.33;95.82
34586;BME280;20816;50.950;11.108;2023-01-29T11:06:22;99395.22;;;-0.43;95.90
34586;BME280;20816;50.950;11.108;2023-01-29T11:08:55;99402.78;;;-0.49;96.59
34586;BME280;20816;50.950;11.108;2023-01-29T11:11:35;99406.03;;;-0.29;96.52
34586;BME280;20816;50.950;11.108;2023-01-29T11:14:11;99407.22;;;-0.19;95.66
34586;BME280;20816;50.950;11.108;2023-01-29T11:16:40;99399.41;;;-0.21;96.23
34586;BME280;20816;50.950;11.108;2023-01-29T11:19:08;99400.38;;;-0.17;95.71
34586;BME280;20816;50.950;11.108;2023-01-29T11:22:10;99385.63;;;-0.21;96.38
34586;BME280;20816;50.950;11.108;2023-01-29T11:24:38;99378.84;;;-0.18;95.85
34586;BME280;20816;50.950;11.108;2023-01-29T11:27:21;99373.53;;;-0.22;95.43
34586;BME280;20816;50.950;11.108;2023-01-29T11:29:49;99378.38;;;-0.06;95.91
34586;BME280;20816;50.950;11.108;2023-01-29T11:32:27;99374.19;;;-0.03;95.86
34586;BME280;20816;50.950;11.108;2023-01-29T11:37:21;99374.00;;;0.18;96.20
34586;BME280;20816;50.950;11.108;2023-01-29T11:39:49;99362.06;;;0.23;95.58
34586;BME280;20816;50.950;11.108;2023-01-29T11:42:20;99363.88;;;0.24;94.87
34586;BME280;20816;50.950;11.108;2023-01-29T11:44:48;99349.31;;;0.28;95.60
34586;BME280;20816;50.950;11.108;2023-01-29T11:47:17;99350.84;;;0.50;95.10
34586;BME280;20816;50.950;11.108;2023-01-29T11:49:49;99348.63;;;0.34;94.84
34586;BME280;20816;50.950;11.108;2023-01-29T11:52:20;99340.00;;;0.33;95.11
34586;BME280;20816;50.950;11.108;2023-01-29T11:55:01;99345.09;;;0.32;95.39
34586;BME280;20816;50.950;11.108;2023-01-29T11:57:33;99343.47;;;0.34;95.35
34586;BME280;20816;50.950;11.108;2023-01-29T12:00:09;99344.63;;;0.43;95.32
34586;BME280;20816;50.950;11.108;2023-01-29T12:03:11;99353.31;;;0.47;94.74
34586;BME280;20816;50.950;11.108;2023-01-29T12:05:53;99348.78;;;0.40;95.31
34586;BME280;20816;50.950;11.108;2023-01-29T12:08:22;99346.88;;;0.33;94.98
34586;BME280;20816;50.950;11.108;2023-01-29T12:10:49;99343.75;;;0.43;95.21
34586;BME280;20816;50.950;11.108;2023-01-29T12:13:26;99338.56;;;0.43;94.88
34586;BME280;20816;50.950;11.108;2023-01-29T12:16:13;99338.38;;;0.37;95.23
34586;BME280;20816;50.950;11.108;2023-01-29T12:18:43;99323.25;;;0.49;95.20
34586;BME280;20816;50.950;11.108;2023-01-29T12:21:26;99329.22;;;0.48;95.22
34586;BME280;20816;50.950;11.108;2023-01-29T12:24:03;99313.16;;;0.58;94.71
34586;BME280;20816;50.950;11.108;2023-01-29T12:26:35;99307.16;;;0.59;95.10
34586;BME280;20816;50.950;11.108;2023-01-29T12:29:32;99307.34;;;0.65;95.41
34586;BME280;20816;50.950;11.108;2023-01-29T12:32:26;99306.66;;;0.72;95.71
34586;BME280;20816;50.950;11.108;2023-01-29T12:35:02;99294.25;;;0.91;95.82
34586;BME280;20816;50.950;11.108;2023-01-29T12:37:57;99286.38;;;0.88;95.40
34586;BME280;20816;50.950;11.108;2023-01-29T12:40:28;99276.78;;;0.82;95.08
34586;BME280;20816;50.950;11.108;2023-01-29T12:43:03;99282.81;;;0.82;94.88
34586;BME280;20816;50.950;11.108;2023-01-29T12:45:31;99279.16;;;0.74;94.77
34586;BME280;20816;50.950;11.108;2023-01-29T12:48:06;99275.63;;;0.72;95.36
34586;BME280;20816;50.950;11.108;2023-01-29T12:50:37;99266.09;;;0.71;96.04
34586;BME280;20816;50.950;11.108;2023-01-29T12:56:02;99242.38;;;0.86;96.05
34586;BME280;20816;50.950;11.108;2023-01-29T12:58:51;99241.09;;;1.03;95.77
34586;BME280;20816;50.950;11.108;2023-01-29T13:01:27;99247.88;;;0.98;94.63
34586;BME280;20816;50.950;11.108;2023-01-29T13:06:59;99235.03;;;1.03;94.53
34586;BME280;20816;50.950;11.108;2023-01-29T13:09:30;99245.34;;;1.00;94.72
34586;BME280;20816;50.950;11.108;2023-01-29T13:12:02;99250.94;;;0.83;95.16
34586;BME280;20816;50.950;11.108;2023-01-29T13:14:58;99244.16;;;0.89;95.60
34586;BME280;20816;50.950;11.108;2023-01-29T13:17:46;99250.97;;;0.85;95.77
34586;BME280;20816;50.950;11.108;2023-01-29T13:20:20;99247.09;;;1.01;95.41
34586;BME280;20816;50.950;11.108;2023-01-29T13:22:49;99233.47;;;1.08;95.43
34586;BME280;20816;50.950;11.108;2023-01-29T13:25:18;99235.22;;;1.09;95.32
34586;BME280;20816;50.950;11.108;2023-01-29T13:27:46;99222.03;;;1.00;95.64
34586;BME280;20816;50.950;11.108;2023-01-29T13:32:55;99223.41;;;0.87;95.41
34586;BME280;20816;50.950;11.108;2023-01-29T13:35:40;99212.53;;;0.99;94.75
34586;BME280;20816;50.950;11.108;2023-01-29T13:38:22;99212.41;;;0.94;94.30
34586;BME280;20816;50.950;11.108;2023-01-29T13:41:00;99211.91;;;0.76;94.90
34586;BME280;20816;50.950;11.108;2023-01-29T13:43:34;99208.34;;;0.72;95.33
34586;BME280;20816;50.950;11.108;2023-01-29T13:46:12;99216.88;;;0.68;95.76
34586;BME280;20816;50.950;11.108;2023-01-29T13:48:41;99215.31;;;0.73;95.58
34586;BME280;20816;50.950;11.108;2023-01-29T13:51:12;99212.22;;;0.56;95.81
34586;BME280;20816;50.950;11.108;2023-01-29T13:53:43;99206.28;;;0.59;95.65
34586;BME280;20816;50.950;11.108;2023-01-29T13:56:40;99202.94;;;0.63;96.01
34586;BME280;20816;50.950;11.108;2023-01-29T13:59:21;99190.94;;;0.65;95.25
34586;BME280;20816;50.950;11.108;2023-01-29T14:06:47;99195.69;;;0.50;95.57
34586;BME280;20816;50.950;11.108;2023-01-29T14:12:04;99193.59;;;0.37;96.40
34586;BME280;20816;50.950;11.108;2023-01-29T14:15:01;99199.63;;;0.37;96.29
34586;BME280;20816;50.950;11.108;2023-01-29T14:17:29;99191.91;;;0.39;96.03
34586;BME280;20816;50.950;11.108;2023-01-29T14:20:16;99190.66;;;0.24;96.82
34586;BME280;20816;50.950;11.108;2023-01-29T14:22:53;99192.44;;;0.27;96.51
34586;BME280;20816;50.950;11.108;2023-01-29T14:25:27;99189.91;;;0.28;96.49
34586;BME280;20816;50.950;11.108;2023-01-29T14:27:56;99190.28;;;0.41;96.09
34586;BME280;20816;50.950;11.108;2023-01-29T14:30:26;99199.84;;;0.45;95.71
34586;BME280;20816;50.950;11.108;2023-01-29T14:32:55;99202.34;;;0.42;95.78
34586;BME280;20816;50.950;11.108;2023-01-29T14:35:27;99200.75;;;0.47;95.86
34586;BME280;20816;50.950;11.108;2023-01-29T14:38:04;99201.41;;;0.40;95.45
34586;BME280;20816;50.950;11.108;2023-01-29T14:40:31;99204.69;;;0.33;96.26
34586;BME280;20816;50.950;11.108;2023-01-29T14:43:07;99205.66;;;0.38;95.24